Time;durP1;ratioP1;P1;durP2;ratioP2;P2;SDS_P1;SDS_P2;PMS_P1;PMS_P2;Temp;Humidity;BMP_temperature;BMP_pressure;BME280_temperature;BME280_humidity;BME280_pressure;Samples;Min_cycle;Max_cycle;Signal;HPM_P1;HPM_P2
2022/03/15 00:01:03;;;;;;;53.87;24.63;;;;;;;0.26;79.98;101342.91;5001435;28;20163;-87
2022/03/15 00:03:29;;;;;;;51.92;23.73;;;;;;;-0.03;81.14;101311.28;4977707;28;20743;-87
2022/03/15 00:05:54;;;;;;;53.83;25.77;;;;;;;-2.42;82.33;100863.38;4994999;28;20219;-87
2022/03/15 00:08:20;;;;;;;62.00;27.50;;;;;;;-1.95;83.03;100978.06;4977276;28;20164;-87
2022/03/15 00:10:47;;;;;;;61.37;28.50;;;;;;;-2.85;83.98;100820.25;4993546;28;20242;-87
2022/03/15 00:13:13;;;;;;;62.95;28.42;;;;;;;-2.05;84.34;100950.38;5008818;28;20186;-87
2022/03/15 00:15:40;;;;;;;64.63;29.07;;;;;;;-2.63;85.29;100879.06;5020018;28;20170;-87
2022/03/15 00:18:07;;;;;;;69.22;28.95;;;;;;;-2.21;85.17;100922.91;4999385;28;20171;-87
2022/03/15 00:20:32;;;;;;;61.05;27.90;;;;;;;-1.81;85.17;100983.00;4997692;28;20172;-85
2022/03/15 00:22:59;;;;;;;65.30;30.13;;;;;;;-1.84;85.23;100995.94;4994033;28;20202;-87
2022/03/15 00:25:24;;;;;;;65.65;29.10;;;;;;;-0.64;85.40;101212.16;5014578;28;20151;-87
2022/03/15 00:27:51;;;;;;;61.47;26.93;;;;;;;-0.07;87.32;101296.69;4996833;28;20173;-86
2022/03/15 00:30:17;;;;;;;64.72;28.48;;;;;;;-0.67;87.38;101218.38;5014199;28;20273;-86
2022/03/15 00:32:44;;;;;;;61.70;26.58;;;;;;;-1.44;87.60;101075.09;4996517;28;20201;-87
2022/03/15 00:35:18;;;;;;;72.70;30.02;;;;;;;-0.01;86.80;101309.84;5013754;28;20162;-87
2022/03/15 00:37:44;;;;;;;57.15;25.75;;;;;;;-1.29;86.23;101074.41;4997243;28;20234;-87
2022/03/15 00:40:11;;;;;;;59.80;26.52;;;;;;;-2.54;85.85;100869.38;5007174;28;20186;-87
2022/03/15 00:42:36;;;;;;;57.58;25.92;;;;;;;-1.83;85.23;100970.44;5013576;28;20167;-88
2022/03/15 00:45:04;;;;;;;60.40;25.50;;;;;;;-1.58;85.75;101021.34;4996846;28;20204;-86
2022/03/15 00:47:30;;;;;;;61.35;25.75;;;;;;;-3.63;85.74;100701.22;4997261;28;20698;-89
2022/03/15 00:49:56;;;;;;;59.70;25.20;;;;;;;-1.55;87.07;101040.66;4995822;28;20317;-86
2022/03/15 00:52:21;;;;;;;61.10;27.97;;;;;;;-0.92;90.28;101199.72;5013322;28;20302;-86
2022/03/15 00:54:47;;;;;;;58.40;27.47;;;;;;;-1.00;90.86;101169.69;5014038;28;20627;-87
2022/03/15 00:57:12;;;;;;;62.30;28.00;;;;;;;-2.58;91.83;100937.50;5013330;28;20159;-87
2022/03/15 00:59:38;;;;;;;63.87;28.43;;;;;;;-1.83;90.98;101039.94;4995484;28;20159;-86
2022/03/15 01:02:04;;;;;;;59.07;24.63;;;;;;;-0.28;90.91;101304.19;5012460;28;20693;-87
2022/03/15 01:04:29;;;;;;;64.83;27.43;;;;;;;-1.85;90.63;101041.34;5012571;28;20250;-86
2022/03/15 01:06:55;;;;;;;50.10;21.97;;;;;;;-0.22;90.36;101293.31;5027070;28;20159;-88
2022/03/15 01:09:20;;;;;;;64.00;27.30;;;;;;;-1.03;90.03;101160.28;5023670;28;20199;-86
2022/03/15 01:11:46;;;;;;;61.93;27.93;;;;;;;-1.67;90.19;101064.06;4996737;28;20179;-86
2022/03/15 01:14:12;;;;;;;48.23;19.13;;;;;;;-0.68;91.90;101283.72;4995832;28;20178;-86
2022/03/15 01:16:37;;;;;;;75.63;28.37;;;;;;;-2.71;92.61;100959.06;5013697;28;20195;-86
2022/03/15 01:19:06;;;;;;;72.80;28.77;;;;;;;-2.52;92.91;100987.81;5012852;28;20187;-85
2022/03/15 01:21:32;;;;;;;75.03;29.45;;;;;;;-2.30;92.87;101030.03;4995823;28;20257;-86
2022/03/15 01:23:57;;;;;;;72.83;30.33;;;;;;;-2.40;93.58;101030.56;5013090;28;20210;-86
2022/03/15 01:26:23;;;;;;;72.03;32.03;;;;;;;-0.88;94.26;101287.97;5013502;28;20174;-87
2022/03/15 01:28:48;;;;;;;70.43;29.10;;;;;;;-1.54;93.00;101154.19;5013376;28;20159;-87
2022/03/15 01:31:13;;;;;;;66.43;27.97;;;;;;;-4.47;93.60;100694.22;4995019;28;20195;-86
2022/03/15 01:33:39;;;;;;;71.00;30.47;;;;;;;-3.17;94.79;100932.84;4994616;28;20559;-87
2022/03/15 01:36:05;;;;;;;64.20;26.67;;;;;;;-2.11;95.56;101139.06;4994447;28;20287;-86
2022/03/15 01:38:34;;;;;;;64.10;29.47;;;;;;;-4.34;96.01;100761.75;5012013;28;20194;-87
2022/03/15 01:41:00;;;;;;;76.22;30.77;;;;;;;-2.63;96.10;101073.97;5011943;28;20618;-87
2022/03/15 01:43:25;;;;;;;71.13;28.73;;;;;;;-2.93;96.27;101029.03;5012266;28;20178;-87
2022/03/15 01:45:50;;;;;;;68.37;28.27;;;;;;;-1.43;96.78;101275.56;4995079;28;20171;-87
2022/03/15 01:48:16;;;;;;;72.23;29.00;;;;;;;-3.25;95.25;100921.13;4995919;28;20174;-86
2022/03/15 01:50:41;;;;;;;68.97;28.13;;;;;;;-2.86;96.01;101034.06;4995976;28;20668;-88
2022/03/15 01:53:07;;;;;;;71.37;28.47;;;;;;;-3.31;97.07;100972.38;4995575;28;20175;-87
2022/03/15 01:55:34;;;;;;;68.67;29.00;;;;;;;-3.99;96.97;100827.00;5014028;28;20171;-87
2022/03/15 01:57:59;;;;;;;78.85;31.10;;;;;;;-3.35;96.71;100944.59;4995105;28;20167;-87
2022/03/15 02:00:25;;;;;;;77.97;32.43;;;;;;;-3.72;97.09;100884.78;5029576;28;20182;-87
2022/03/15 02:02:50;;;;;;;75.30;30.70;;;;;;;-2.36;96.93;101121.94;5026563;28;20209;-88
2022/03/15 02:05:16;;;;;;;64.57;25.57;;;;;;;-2.48;96.76;101088.25;4997527;28;20197;-88
2022/03/15 02:07:41;;;;;;;68.50;27.77;;;;;;;-3.21;96.12;100975.25;4994939;28;20332;-87
2022/03/15 02:10:07;;;;;;;74.70;29.03;;;;;;;-3.61;96.59;100914.19;5012196;28;20354;-88
2022/03/15 02:12:38;;;;;;;77.43;30.53;;;;;;;-2.53;98.17;101156.22;4991646;28;20696;-88
2022/03/15 02:15:06;;;;;;;80.32;31.10;;;;;;;-1.69;98.09;101269.03;5011362;28;20269;-88
2022/03/15 02:17:32;;;;;;;66.43;24.73;;;;;;;-1.61;97.80;101266.78;5012291;28;20252;-88
2022/03/15 02:19:57;;;;;;;62.97;26.63;;;;;;;-3.80;96.39;100875.53;5011718;28;20642;-87
2022/03/15 02:22:23;;;;;;;59.50;26.90;;;;;;;-4.19;96.01;100790.81;4994383;28;20546;-87
2022/03/15 02:24:49;;;;;;;71.93;29.73;;;;;;;-3.50;95.76;100923.81;4994973;28;20183;-87
2022/03/15 02:27:15;;;;;;;65.77;25.93;;;;;;;-2.41;97.25;101136.28;5011162;28;20174;-87
2022/03/15 02:29:41;;;;;;;64.10;26.42;;;;;;;-1.62;97.83;101309.66;5011246;28;20619;-88
2022/03/15 02:32:07;;;;;;;55.30;23.03;;;;;;;-4.06;96.96;100861.53;5011899;28;20210;-87
2022/03/15 02:34:33;;;;;;;66.15;25.73;;;;;;;-2.06;97.27;101224.88;5010598;28;20463;-88
2022/03/15 02:36:59;;;;;;;44.67;20.37;;;;;;;-6.21;98.44;100585.16;5010453;28;20230;-87
2022/03/15 02:39:24;;;;;;;63.53;26.23;;;;;;;-1.79;99.16;101300.19;5014172;28;20155;-87
2022/03/15 02:41:50;;;;;;;60.20;26.20;;;;;;;-5.96;98.26;100608.88;5013940;28;20198;-88
2022/03/15 02:44:15;;;;;;;56.83;23.73;;;;;;;-4.70;98.19;100801.72;5013838;28;20163;-87
2022/03/15 02:46:41;;;;;;;50.87;22.40;;;;;;;-4.70;98.19;100801.72;4998040;28;20171;-87
2022/03/15 02:49:07;;;;;;;54.23;23.97;;;;;;;-2.03;99.38;101297.19;4998084;28;20249;-86
2022/03/15 02:51:32;;;;;;;42.20;18.42;;;;;;;-2.94;98.37;101103.19;5015114;28;20647;-87
2022/03/15 02:54:02;;;;;;;46.63;19.70;;;;;;;-3.29;98.10;101064.16;5015058;28;20205;-87
2022/03/15 02:56:29;;;;;;;50.20;22.52;;;;;;;-2.34;97.87;101232.16;5014351;28;20553;-86
2022/03/15 02:58:55;;;;;;;54.60;24.60;;;;;;;-4.85;98.41;100799.78;5015348;28;20170;-87
2022/03/15 03:01:20;;;;;;;55.13;24.23;;;;;;;-4.20;98.53;100862.31;5016625;28;20182;-87
2022/03/15 03:03:47;;;;;;;57.63;24.60;;;;;;;-4.01;97.40;100873.75;5017448;28;20166;-87
2022/03/15 03:06:13;;;;;;;61.72;24.95;;;;;;;-4.47;96.85;100812.84;5017151;28;20166;-87
2022/03/15 03:08:39;;;;;;;51.67;22.60;;;;;;;-3.17;96.72;101044.28;5035193;28;20640;-87
2022/03/15 03:11:05;;;;;;;48.88;20.35;;;;;;;-4.34;97.28;100842.44;5017415;28;20281;-86
2022/03/15 03:13:31;;;;;;;43.53;18.50;;;;;;;-2.05;98.58;101298.59;5033438;28;20166;-87
2022/03/15 03:15:58;;;;;;;46.33;20.80;;;;;;;-2.46;99.06;101215.75;5033171;28;20349;-87
2022/03/15 03:18:32;;;;;;;51.17;22.58;;;;;;;-2.09;100.00;101294.00;5033147;28;20174;-86
2022/03/15 03:21:01;;;;;;;47.63;19.23;;;;;;;-5.30;100.00;100702.72;5034484;28;20151;-86
2022/03/15 03:23:27;;;;;;;49.47;20.48;;;;;;;-2.41;100.00;101215.63;5024218;28;20190;-87
2022/03/15 03:25:56;;;;;;;39.75;17.52;;;;;;;-3.15;100.00;101116.28;5014641;28;20178;-87
2022/03/15 03:28:25;;;;;;;28.52;11.90;;;;;;;-5.04;99.83;100743.88;4996526;28;20177;-87
2022/03/15 03:30:51;;;;;;;45.30;18.88;;;;;;;-4.50;99.98;100827.28;5013944;28;20190;-87
2022/03/15 03:33:21;;;;;;;54.92;24.60;;;;;;;-2.14;100.00;101237.94;4996298;28;20179;-87
2022/03/15 03:35:49;;;;;;;55.25;22.95;;;;;;;-1.81;100.00;101276.78;5013633;28;20233;-87
2022/03/15 03:38:15;;;;;;;53.95;24.50;;;;;;;-3.49;98.89;100950.34;5012682;28;20556;-86
2022/03/15 03:40:41;;;;;;;59.00;26.80;;;;;;;-3.44;98.25;100929.50;5013710;28;20253;-86
2022/03/15 03:43:07;;;;;;;73.20;31.07;;;;;;;-4.05;97.15;100837.00;5014235;28;20402;-87
2022/03/15 03:45:34;;;;;;;78.50;32.72;;;;;;;-3.43;97.01;100911.47;4996747;28;20225;-87
2022/03/15 03:48:00;;;;;;;65.95;29.33;;;;;;;-3.95;96.35;100844.84;5014348;28;20267;-87
2022/03/15 03:50:25;;;;;;;78.40;32.30;;;;;;;-2.65;96.71;101082.84;5013802;28;20321;-87
2022/03/15 03:52:51;;;;;;;78.77;31.80;;;;;;;-1.94;96.54;101184.19;5014306;28;20159;-87
2022/03/15 03:55:16;;;;;;;88.53;34.13;;;;;;;-2.48;95.73;101100.66;5013861;28;20298;-87
2022/03/15 03:57:42;;;;;;;82.63;36.13;;;;;;;-2.05;95.64;101153.81;4997052;28;20198;-87
2022/03/15 04:00:08;;;;;;;76.20;32.03;;;;;;;-2.36;95.41;101084.75;4996494;28;20702;-86
2022/03/15 04:02:33;;;;;;;65.10;30.87;;;;;;;-3.59;94.59;100863.28;4997027;28;20261;-87
2022/03/15 04:04:58;;;;;;;75.73;32.40;;;;;;;-3.14;94.74;100959.56;5015133;28;20624;-88
2022/03/15 04:07:24;;;;;;;111.83;44.70;;;;;;;-2.48;94.74;101080.81;5013910;28;20657;-87
2022/03/15 04:09:50;;;;;;;154.37;64.17;;;;;;;-3.83;94.25;100845.47;5013943;28;20201;-86
2022/03/15 04:12:19;;;;;;;113.87;49.50;;;;;;;-3.13;94.24;100953.94;5013831;28;20170;-87
2022/03/15 04:14:46;;;;;;;74.43;33.00;;;;;;;-3.01;94.47;100986.00;5018930;28;20159;-87
2022/03/15 04:17:11;;;;;;;70.38;28.85;;;;;;;-2.65;94.16;101039.13;5032147;28;20190;-88
2022/03/15 04:19:36;;;;;;;73.00;30.33;;;;;;;-3.67;94.57;100857.41;4997285;28;20170;-88
2022/03/15 04:22:02;;;;;;;60.97;26.13;;;;;;;-3.11;94.04;100945.09;4996221;28;21339;-87
2022/03/15 04:24:27;;;;;;;65.17;28.90;;;;;;;-1.53;93.66;101225.47;5013531;28;20166;-87
2022/03/15 04:26:54;;;;;;;67.20;28.27;;;;;;;-1.59;94.32;101266.97;4995778;28;20220;-87
2022/03/15 04:29:20;;;;;;;111.65;41.42;;;;;;;-3.78;94.10;100839.50;4995595;28;20199;-87
2022/03/15 04:31:46;;;;;;;158.40;55.55;;;;;;;-1.53;94.44;101262.72;5014269;28;20170;-86
2022/03/15 04:34:11;;;;;;;193.00;63.93;;;;;;;-1.51;93.69;101247.28;4996813;28;20171;-87
2022/03/15 04:36:37;;;;;;;131.13;46.87;;;;;;;-3.80;93.77;100838.41;4997821;28;20290;-86
2022/03/15 04:39:04;;;;;;;124.43;43.87;;;;;;;-2.23;93.78;101102.91;5007561;28;20173;-86
2022/03/15 04:41:29;;;;;;;109.00;39.80;;;;;;;-4.50;93.24;100721.03;5010964;28;20210;-87
2022/03/15 04:43:55;;;;;;;75.47;33.40;;;;;;;-2.06;94.30;101172.75;5020883;28;20167;-86
2022/03/15 04:46:21;;;;;;;75.13;33.10;;;;;;;-2.13;94.05;101167.78;5014930;28;20171;-87
2022/03/15 04:48:46;;;;;;;69.57;30.33;;;;;;;-4.46;93.54;100734.66;5013874;28;20189;-86
2022/03/15 04:51:12;;;;;;;78.70;30.70;;;;;;;-3.37;93.03;100912.22;5019314;28;20194;-87
2022/03/15 04:53:38;;;;;;;144.27;45.90;;;;;;;-3.49;92.24;100876.09;5002485;28;20201;-87
2022/03/15 04:56:03;;;;;;;53.17;23.77;;;;;;;-2.23;92.94;101092.97;5014843;28;20205;-87
2022/03/15 04:58:29;;;;;;;47.93;21.53;;;;;;;-4.90;92.33;100637.84;4997083;28;20201;-87
2022/03/15 05:00:55;;;;;;;47.60;22.33;;;;;;;-4.26;92.56;100761.09;4996760;28;20611;-88
2022/03/15 05:03:20;;;;;;;39.27;17.70;;;;;;;-1.40;92.76;101253.56;5013443;28;20179;-88
2022/03/15 05:05:46;;;;;;;43.17;19.33;;;;;;;-1.48;92.36;101270.00;4997077;28;20167;-88
2022/03/15 05:08:11;;;;;;;51.87;21.93;;;;;;;-4.37;92.07;100750.63;4997252;28;20172;-86
2022/03/15 05:13:21;;;;;;;42.60;19.20;;;;;;;-4.45;92.85;100732.38;5014337;28;20257;-86
2022/03/15 05:15:50;;;;;;;43.23;19.37;;;;;;;-4.67;92.16;100690.94;5012753;28;20618;-87
2022/03/15 05:18:15;;;;;;;39.67;17.50;;;;;;;-2.83;93.07;101095.47;4996687;28;20170;-87
2022/03/15 05:20:40;;;;;;;42.93;20.70;;;;;;;-3.18;94.26;101011.88;5016435;28;20188;-87
2022/03/15 05:23:06;;;;;;;43.83;18.93;;;;;;;-4.96;94.52;100711.13;5002599;28;20336;-88
2022/03/15 05:25:31;;;;;;;43.50;18.60;;;;;;;-5.44;94.72;100671.38;5013002;28;20178;-87
2022/03/15 05:27:57;;;;;;;41.63;19.07;;;;;;;-5.54;95.65;100661.03;4997188;28;20229;-88
2022/03/15 05:30:23;;;;;;;42.83;17.20;;;;;;;-4.97;96.84;100763.69;5010882;28;20293;-86
2022/03/15 05:32:49;;;;;;;93.57;32.67;;;;;;;-2.75;97.06;101146.84;5016157;28;20190;-86
2022/03/15 05:35:15;;;;;;;45.90;19.50;;;;;;;-3.67;97.13;100997.56;5016424;28;20179;-88
2022/03/15 05:37:40;;;;;;;45.92;19.65;;;;;;;-5.52;97.05;100667.09;5013990;28;20775;-89
2022/03/15 05:40:07;;;;;;;61.23;28.10;;;;;;;-4.64;96.95;100799.13;4998113;28;20186;-89
2022/03/15 05:42:32;;;;;;;84.70;30.55;;;;;;;-5.84;95.47;100511.75;5018392;28;20186;-85
2022/03/15 05:44:57;;;;;;;123.87;43.30;;;;;;;-4.88;95.27;100703.09;4995480;28;20195;-85
2022/03/15 05:47:23;;;;;;;58.33;22.27;;;;;;;-3.12;95.66;101012.63;5012492;28;20178;-85
2022/03/15 05:49:48;;;;;;;36.90;15.87;;;;;;;-2.39;96.63;101179.50;4991258;28;20203;-86
2022/03/15 05:52:14;;;;;;;60.20;27.37;;;;;;;-3.84;97.46;100878.31;4992739;28;20172;-86
2022/03/15 05:54:39;;;;;;;64.60;28.37;;;;;;;-4.26;97.13;100793.22;4992955;28;20183;-89
2022/03/15 05:57:05;;;;;;;82.20;32.30;;;;;;;-3.53;97.50;100905.22;5012558;28;20169;-86
2022/03/15 05:59:30;;;;;;;61.90;26.67;;;;;;;-4.11;95.43;100786.81;5013040;28;20178;-87
2022/03/15 06:01:57;;;;;;;50.87;21.60;;;;;;;-2.70;95.62;101059.09;5013605;28;20162;-86
2022/03/15 06:04:25;;;;;;;31.58;13.90;;;;;;;-4.63;95.87;100690.59;5013289;28;20202;-86
2022/03/15 06:06:51;;;;;;;43.28;18.55;;;;;;;-1.30;96.63;101316.06;5007049;28;20213;-86
2022/03/15 06:09:17;;;;;;;37.23;17.03;;;;;;;-5.13;96.34;100617.72;5000544;28;20198;-86
2022/03/15 06:11:42;;;;;;;45.40;18.00;;;;;;;-1.75;96.11;101146.66;4980169;28;20193;-87
2022/03/15 06:14:08;;;;;;;47.63;19.20;;;;;;;-0.72;94.84;101284.09;5016073;28;20627;-87
2022/03/15 06:16:33;;;;;;;56.77;25.87;;;;;;;-3.87;94.26;100774.09;5003133;28;20280;-86
2022/03/15 06:18:59;;;;;;;51.03;21.07;;;;;;;-0.77;93.98;101285.16;5039562;28;20177;-86
2022/03/15 06:21:25;;;;;;;69.17;29.97;;;;;;;-4.37;92.63;100588.38;5023054;28;20183;-86
2022/03/15 06:23:50;;;;;;;63.23;27.23;;;;;;;-1.98;91.76;100982.66;4975842;28;20230;-87
2022/03/15 06:26:20;;;;;;;49.90;23.03;;;;;;;-4.09;89.65;100529.91;5009668;28;20194;-88
2022/03/15 06:28:45;;;;;;;51.28;20.30;;;;;;;-3.75;87.72;100602.38;5014747;28;20201;-87
2022/03/15 06:31:13;;;;;;;42.40;18.40;;;;;;;-2.47;87.32;100827.22;5016165;28;20588;-89
2022/03/15 06:33:39;;;;;;;43.13;19.40;;;;;;;-1.36;87.40;100984.97;5014579;28;20186;-89
2022/03/15 06:36:11;;;;;;;59.70;26.45;;;;;;;-0.17;85.48;101132.13;5015231;28;20225;-89
2022/03/15 06:38:43;;;;;;;55.58;28.05;;;;;;;-2.87;84.08;100605.25;5000404;28;20576;-88
2022/03/15 06:41:11;;;;;;;58.97;25.17;;;;;;;-2.32;83.09;100711.59;5031920;28;20245;-90
2022/03/15 06:43:39;;;;;;;49.53;21.67;;;;;;;0.73;82.40;101247.72;5022275;28;20202;-89
2022/03/15 06:46:05;;;;;;;51.10;21.90;;;;;;;1.20;82.07;101303.72;5014624;28;20551;-89
2022/03/15 06:48:31;;;;;;;47.83;20.15;;;;;;;-0.71;80.11;100937.75;5015123;28;20190;-88
2022/03/15 06:50:56;;;;;;;43.10;20.93;;;;;;;-0.44;78.71;100905.13;5015971;28;20695;-87
2022/03/15 06:53:24;;;;;;;51.60;27.20;;;;;;;-1.06;78.42;100826.97;5012595;28;20190;-88
2022/03/15 06:55:50;;;;;;;46.28;23.15;;;;;;;-1.12;77.64;100800.53;4997660;28;20262;-88
2022/03/15 06:58:17;;;;;;;45.63;23.87;;;;;;;1.33;76.09;101142.19;5011979;28;20191;-88
2022/03/15 07:00:43;;;;;;;44.20;23.03;;;;;;;0.49;73.54;100898.00;4996132;28;20635;-90
2022/03/15 07:03:08;;;;;;;41.60;18.70;;;;;;;-0.64;71.75;100677.56;4998025;28;20446;-87
2022/03/15 07:05:34;;;;;;;43.60;20.33;;;;;;;1.18;71.84;101026.69;4997840;28;20505;-89
2022/03/15 07:07:59;;;;;;;63.90;29.47;;;;;;;0.80;70.70;100897.09;5017277;28;20205;-88
2022/03/15 07:10:36;;;;;;;49.60;24.20;;;;;;;3.54;69.23;101268.78;5015383;28;20190;-89
2022/03/15 07:13:01;;;;;;;54.27;26.20;;;;;;;0.67;66.87;100716.25;5015582;28;20174;-87
2022/03/15 07:15:27;;;;;;;61.63;27.47;;;;;;;3.84;66.24;101242.53;5024344;28;20421;-87
2022/03/15 07:17:55;;;;;;;62.77;31.37;;;;;;;2.42;65.45;101008.84;5027375;28;20175;-88
2022/03/15 07:20:22;;;;;;;55.60;29.73;;;;;;;0.32;64.24;100643.78;5019256;28;20194;-87
2022/03/15 07:22:48;;;;;;;41.10;23.57;;;;;;;4.30;63.07;101285.53;4989365;28;20512;-87
2022/03/15 07:25:14;;;;;;;39.63;21.83;;;;;;;4.18;64.07;101292.75;4995843;28;20461;-86
2022/03/15 07:27:40;;;;;;;37.53;18.53;;;;;;;1.05;64.52;100704.47;5015598;28;20178;-88
2022/03/15 07:30:07;;;;;;;46.27;22.83;;;;;;;1.55;62.66;100746.09;5015798;28;20286;-87
2022/03/15 07:32:33;;;;;;;42.33;21.10;;;;;;;1.22;60.35;100608.03;5012604;28;20491;-87
2022/03/15 07:34:58;;;;;;;35.50;17.73;;;;;;;0.33;61.64;100535.94;5011231;28;20429;-87
2022/03/15 07:37:24;;;;;;;45.47;22.83;;;;;;;3.86;61.70;101106.69;5008175;28;20218;-87
2022/03/15 07:39:49;;;;;;;34.63;17.53;;;;;;;3.49;60.57;100987.03;5015723;28;20175;-87
2022/03/15 07:42:15;;;;;;;45.77;21.67;;;;;;;2.20;61.50;100726.00;4997316;28;20198;-89
2022/03/15 07:44:44;;;;;;;42.33;20.53;;;;;;;1.40;59.45;100564.97;4992801;28;20201;-88
2022/03/15 07:47:10;;;;;;;45.93;21.23;;;;;;;6.16;57.40;101264.06;4993003;28;20287;-88
2022/03/15 07:49:36;;;;;;;56.00;24.13;;;;;;;6.01;54.45;101126.03;5011163;28;20831;-89
2022/03/15 07:52:03;;;;;;;41.97;19.50;;;;;;;5.18;52.59;100957.00;5009848;28;20512;-89
2022/03/15 07:54:29;;;;;;;29.63;16.17;;;;;;;4.52;51.87;100891.56;5017000;28;20182;-89
2022/03/15 07:56:54;;;;;;;30.93;14.53;;;;;;;5.80;53.18;101258.16;5012635;28;20849;-89
2022/03/15 07:59:20;;;;;;;28.67;15.57;;;;;;;4.31;52.82;100868.69;4997291;28;20669;-89
2022/03/15 08:01:45;;;;;;;31.63;15.87;;;;;;;7.05;50.26;101248.56;5006039;28;20178;-90
2022/03/15 08:04:11;;;;;;;25.70;15.17;;;;;;;3.77;50.53;100649.97;4995989;28;20193;-88
2022/03/15 08:06:36;;;;;;;26.90;14.80;;;;;;;5.84;50.69;101106.91;4986850;28;20268;-87
2022/03/15 08:09:05;;;;;;;31.67;16.17;;;;;;;7.70;49.74;101242.47;4991330;28;20187;-87
2022/03/15 08:11:30;;;;;;;32.80;16.90;;;;;;;4.29;50.46;100784.94;5014111;28;20309;-88
2022/03/15 08:13:59;;;;;;;30.53;16.23;;;;;;;5.92;50.16;101028.97;5015232;28;20473;-88
2022/03/15 08:16:28;;;;;;;33.33;19.57;;;;;;;4.03;49.43;100580.53;4996909;28;20197;-88
2022/03/15 08:18:54;;;;;;;34.67;19.70;;;;;;;6.82;47.76;100941.06;5021019;28;20442;-90
2022/03/15 08:21:22;;;;;;;111.70;44.43;;;;;;;7.86;46.28;101026.88;5002783;28;20436;-88
2022/03/15 08:27:18;;;;;;;36.60;18.70;;;;;;;5.28;44.10;100545.31;5019357;28;20936;-92
2022/03/15 08:30:04;;;;;;;27.83;15.30;;;;;;;9.25;43.70;101209.72;4996469;28;20725;-93
2022/03/15 08:32:46;;;;;;;193.93;72.47;;;;;;;9.62;43.80;101254.75;4996335;28;20251;-91
2022/03/15 08:38:39;;;;;;;30.97;16.77;;;;;;;9.86;42.47;101258.28;5006585;28;20202;-93
2022/03/15 08:41:06;;;;;;;30.07;14.70;;;;;;;9.82;42.03;101267.28;4993797;28;20536;-91
2022/03/15 08:43:35;;;;;;;27.37;14.93;;;;;;;8.45;41.97;100992.16;4983228;28;20275;-93
2022/03/15 08:46:03;;;;;;;28.37;16.37;;;;;;;10.04;41.71;101236.88;4998038;28;20194;-91
2022/03/15 08:48:54;;;;;;;23.63;14.30;;;;;;;8.07;41.74;101027.00;4978565;28;20246;-91
2022/03/15 08:51:22;;;;;;;26.17;14.37;;;;;;;10.21;41.22;101240.72;4982274;28;20432;-91
2022/03/15 08:53:54;;;;;;;32.73;16.10;;;;;;;10.46;40.73;101260.38;4972334;28;20204;-92
2022/03/15 08:56:49;;;;;;;32.43;13.90;;;;;;;6.69;39.97;100646.41;4985354;28;20372;-93
2022/03/15 08:59:53;;;;;;;26.13;13.97;;;;;;;10.15;39.86;101189.63;4978654;28;20194;-91
2022/03/15 09:02:45;;;;;;;34.53;18.30;;;;;;;10.83;39.48;101222.50;4966978;28;20659;-91
2022/03/15 09:05:16;;;;;;;27.40;14.70;;;;;;;9.68;39.61;101113.59;4976879;28;20191;-90
2022/03/15 09:07:42;;;;;;;24.30;14.20;;;;;;;9.37;38.91;100975.56;5002929;28;20230;-91
2022/03/15 09:10:11;;;;;;;19.00;11.97;;;;;;;8.04;37.63;100673.66;5015003;28;20207;-90
2022/03/15 09:12:36;;;;;;;18.97;11.67;;;;;;;7.28;37.66;100596.50;4989419;28;20190;-90
2022/03/15 09:15:05;;;;;;;19.77;11.57;;;;;;;6.56;38.48;100565.72;4977299;28;20206;-92
2022/03/15 09:17:34;;;;;;;23.43;12.87;;;;;;;10.28;38.92;101213.44;4961585;28;20197;-93
2022/03/15 09:20:00;;;;;;;23.07;12.20;;;;;;;10.79;38.70;101202.78;4960567;29;20214;-91
2022/03/15 09:22:25;;;;;;;16.30;10.17;;;;;;;6.92;37.72;100555.97;4953769;29;20767;-91
2022/03/15 09:24:53;;;;;;;18.30;11.70;;;;;;;10.27;39.67;101234.47;4952593;29;20216;-90
2022/03/15 09:27:25;;;;;;;18.20;11.53;;;;;;;10.28;38.30;101212.53;4950243;28;20200;-90
2022/03/15 09:29:51;;;;;;;20.80;11.97;;;;;;;11.37;36.90;101195.09;4973476;28;20207;-92
2022/03/15 09:32:16;;;;;;;23.87;13.10;;;;;;;8.26;35.94;100533.22;4960211;29;20192;-90
2022/03/15 09:34:43;;;;;;;32.17;17.03;;;;;;;11.09;35.86;101015.75;4953640;29;20212;-90
2022/03/15 09:37:15;;;;;;;81.93;55.40;;;;;;;9.93;36.56;100881.03;4949433;28;20231;-92
2022/03/15 09:39:47;;;;;;;23.57;12.90;;;;;;;10.98;36.19;100955.88;4957145;29;20196;-92
2022/03/15 09:42:15;;;;;;;17.50;11.57;;;;;;;9.31;35.10;100585.97;4950441;29;20292;-91
2022/03/15 09:44:42;;;;;;;20.60;12.03;;;;;;;9.51;34.81;100585.63;4960989;28;20196;-91
2022/03/15 09:47:08;;;;;;;23.50;12.93;;;;;;;9.75;35.51;100711.16;4969097;28;20197;-90
2022/03/15 09:49:45;;;;;;;19.20;11.50;;;;;;;11.02;35.44;100972.13;5007783;28;20226;-91
2022/03/15 09:52:15;;;;;;;18.90;12.00;;;;;;;9.78;36.48;100804.94;4993748;28;20661;-93
2022/03/15 09:54:59;;;;;;;19.27;11.30;;;;;;;10.12;36.04;100812.31;4987053;28;20226;-91
2022/03/15 09:57:35;;;;;;;18.13;11.47;;;;;;;10.83;36.04;100894.00;4994154;28;20294;-92
2022/03/15 10:00:15;;;;;;;20.43;11.43;;;;;;;11.62;34.65;100904.28;4949566;29;20676;-92
2022/03/15 10:02:42;;;;;;;19.03;11.33;;;;;;;8.74;34.61;100432.25;4937307;28;20199;-92
2022/03/15 10:05:08;;;;;;;19.07;11.23;;;;;;;12.70;34.56;101132.91;4976436;28;20200;-92
2022/03/15 10:07:35;;;;;;;19.37;11.17;;;;;;;10.07;34.48;100615.53;4947328;28;20704;-91
2022/03/15 10:10:10;;;;;;;16.97;10.40;;;;;;;9.01;33.74;100476.16;4954157;28;20223;-92
2022/03/15 10:12:38;;;;;;;16.13;10.43;;;;;;;9.36;33.56;100544.19;4960470;28;20190;-93
2022/03/15 10:15:16;;;;;;;18.40;10.50;;;;;;;11.74;33.08;100880.56;4957865;28;20263;-91
2022/03/15 10:18:40;;;;;;;;;;;;;;;;;;;;;
2022/03/15 10:21:28;;;;;;;18.83;11.37;;;;;;;11.75;32.95;100730.13;4960369;29;20283;-92
2022/03/15 10:24:03;;;;;;;16.10;10.30;;;;;;;10.11;31.99;100539.84;4961327;28;20244;-93
2022/03/15 10:26:29;;;;;;;16.87;10.73;;;;;;;10.52;32.32;100513.81;4936635;29;20191;-92
2022/03/15 10:29:16;;;;;;;32.33;16.00;;;;;;;11.54;31.65;100711.00;4941461;29;20208;-91
2022/03/15 10:31:46;;;;;;;20.73;11.93;;;;;;;13.15;33.01;101090.03;4932712;29;20200;-91
2022/03/15 10:34:15;;;;;;;17.63;10.07;;;;;;;9.23;33.20;100435.53;4923564;29;20261;-93
2022/03/15 10:36:45;;;;;;;15.17;9.60;;;;;;;12.41;32.73;100887.25;4952137;28;20766;-90
2022/03/15 10:39:20;;;;;;;14.67;9.67;;;;;;;10.71;32.70;100596.88;4941310;29;20252;-92
2022/03/15 10:42:22;;;;;;;15.00;9.97;;;;;;;10.69;33.45;100618.69;4956372;29;20686;-90
2022/03/15 10:44:56;;;;;;;15.37;10.30;;;;;;;10.23;33.49;100495.97;4966862;28;20203;-89
2022/03/15 10:47:22;;;;;;;15.13;9.93;;;;;;;13.89;33.16;101074.06;4980999;28;20201;-92
2022/03/15 10:49:59;;;;;;;16.13;10.90;;;;;;;14.05;32.21;101047.78;4980769;28;20219;-90
2022/03/15 10:53:03;;;;;;;16.27;9.97;;;;;;;12.67;31.30;100713.44;4970658;28;20199;-91
2022/03/15 10:55:29;;;;;;;15.20;10.23;;;;;;;13.56;30.69;100830.38;4963320;28;20239;-89
2022/03/15 10:58:02;;;;;;;15.63;10.37;;;;;;;12.17;30.62;100579.44;4948803;29;20255;-91
2022/03/15 11:00:35;;;;;;;17.83;11.00;;;;;;;13.98;31.31;100937.06;4947956;29;20407;-91
2022/03/15 11:03:01;;;;;;;15.07;9.43;;;;;;;12.67;32.58;100802.38;4950463;28;20196;-91
2022/03/15 11:05:47;;;;;;;31.40;17.43;;;;;;;11.97;31.59;100663.75;4969672;28;20279;-90
2022/03/15 11:08:30;;;;;;;16.33;9.80;;;;;;;11.30;30.72;100480.47;4944254;29;20222;-91
2022/03/15 11:10:56;;;;;;;15.10;9.87;;;;;;;11.50;30.42;100430.13;4945204;29;20219;-89
2022/03/15 11:13:29;;;;;;;15.30;10.00;;;;;;;11.54;30.89;100487.81;4967088;29;20200;-91
2022/03/15 11:15:56;;;;;;;24.70;14.47;;;;;;;11.20;31.52;100416.59;4965291;29;20197;-90
2022/03/15 11:18:28;;;;;;;18.97;10.23;;;;;;;13.04;30.62;100709.63;4959274;28;20196;-91
2022/03/15 11:20:57;;;;;;;16.53;10.07;;;;;;;11.52;30.14;100446.28;4991886;28;20633;-91
2022/03/15 11:23:25;;;;;;;16.13;9.13;;;;;;;14.51;29.98;101010.44;5005487;28;20182;-89
2022/03/15 11:26:02;;;;;;;21.13;12.80;;;;;;;14.63;29.80;100994.16;5027214;28;20182;-89